sensor_id;sensor_type;location;lat;lon;timestamp;pressure;altitude;pressure_sealevel;temperature;humidity
55590;BME280;41452;42.780;23.116;2023-04-01T00:00:33;93490.56;;;8.98;78.84
55590;BME280;41452;42.780;23.116;2023-04-01T00:02:58;93524.16;;;9.23;76.72
55590;BME280;41452;42.780;23.116;2023-04-01T00:05:23;93516.38;;;9.28;76.37
55590;BME280;41452;42.780;23.116;2023-04-01T00:07:51;93515.91;;;9.31;76.77
55590;BME280;41452;42.780;23.116;2023-04-01T00:10:17;93489.31;;;9.23;75.89
55590;BME280;41452;42.780;23.116;2023-04-01T00:12:43;93523.31;;;9.40;76.37
55590;BME280;41452;42.780;23.116;2023-04-01T00:15:11;93489.31;;;9.23;76.56
55590;BME280;41452;42.780;23.116;2023-04-01T00:17:37;93511.81;;;9.41;75.23
55590;BME280;41452;42.780;23.116;2023-04-01T00:20:04;93510.59;;;9.48;74.26
55590;BME280;41452;42.780;23.116;2023-04-01T00:22:30;93499.50;;;9.41;75.12
55590;BME280;41452;42.780;23.116;2023-04-01T00:24:55;93475.84;;;9.36;73.36
55590;BME280;41452;42.780;23.116;2023-04-01T00:27:21;93510.25;;;9.62;72.76
55590;BME280;41452;42.780;23.116;2023-04-01T00:29:46;93500.25;;;9.59;71.76
55590;BME280;41452;42.780;23.116;2023-04-01T00:32:13;93498.78;;;9.68;72.40
55590;BME280;41452;42.780;23.116;2023-04-01T00:34:39;93499.88;;;9.72;72.86
55590;BME280;41452;42.780;23.116;2023-04-01T00:37:06;93455.84;;;9.52;73.46
55590;BME280;41452;42.780;23.116;2023-04-01T00:39:33;93487.00;;;9.70;74.07
55590;BME280;41452;42.780;23.116;2023-04-01T00:41:59;93481.59;;;9.77;76.45
55590;BME280;41452;42.780;23.116;2023-04-01T00:44:31;93472.72;;;9.83;77.47
55590;BME280;41452;42.780;23.116;2023-04-01T00:46:57;93440.19;;;9.57;76.50
55590;BME280;41452;42.780;23.116;2023-04-01T00:49:24;93479.28;;;9.81;75.02
55590;BME280;41452;42.780;23.116;2023-04-01T00:51:53;93469.81;;;9.80;74.39
55590;BME280;41452;42.780;23.116;2023-04-01T00:54:21;93467.81;;;9.65;75.00
55590;BME280;41452;42.780;23.116;2023-04-01T00:56:54;93462.81;;;9.63;75.74
55590;BME280;41452;42.780;23.116;2023-04-01T00:59:43;93452.41;;;9.68;75.81
55590;BME280;41452;42.780;23.116;2023-04-01T01:02:11;93451.03;;;9.66;74.90
55590;BME280;41452;42.780;23.116;2023-04-01T01:04:38;93439.59;;;9.50;74.99
55590;BME280;41452;42.780;23.116;2023-04-01T01:10:20;93444.66;;;9.57;75.70
55590;BME280;41452;42.780;23.116;2023-04-01T01:15:32;93388.13;;;9.17;77.78
55590;BME280;41452;42.780;23.116;2023-04-01T01:37:13;93427.16;;;9.18;78.49
55590;BME280;41452;42.780;23.116;2023-04-01T01:39:41;93421.94;;;9.18;77.64
55590;BME280;41452;42.780;23.116;2023-04-01T01:42:11;93412.13;;;9.08;77.79
55590;BME280;41452;42.780;23.116;2023-04-01T01:44:38;93419.00;;;9.14;77.98
55590;BME280;41452;42.780;23.116;2023-04-01T01:47:05;93418.28;;;9.19;77.40
55590;BME280;41452;42.780;23.116;2023-04-01T01:49:32;93412.75;;;9.16;78.39
55590;BME280;41452;42.780;23.116;2023-04-01T01:51:58;93401.47;;;9.15;79.97
55590;BME280;41452;42.780;23.116;2023-04-01T01:54:24;93399.09;;;9.13;79.86
55590;BME280;41452;42.780;23.116;2023-04-01T01:56:52;93404.81;;;9.10;79.97
55590;BME280;41452;42.780;23.116;2023-04-01T01:59:22;93376.72;;;8.84;81.80
55590;BME280;41452;42.780;23.116;2023-04-01T02:01:52;93394.44;;;8.77;82.31
55590;BME280;41452;42.780;23.116;2023-04-01T02:04:21;93360.22;;;8.61;82.06
55590;BME280;41452;42.780;23.116;2023-04-01T02:06:59;93362.28;;;8.59;82.15
55590;BME280;41452;42.780;23.116;2023-04-01T02:09:27;93382.94;;;8.78;81.70
55590;BME280;41452;42.780;23.116;2023-04-01T02:11:59;93401.38;;;8.88;82.02
55590;BME280;41452;42.780;23.116;2023-04-01T02:14:28;93397.13;;;8.82;82.73
55590;BME280;41452;42.780;23.116;2023-04-01T02:19:29;93394.38;;;8.93;83.12
55590;BME280;41452;42.780;23.116;2023-04-01T02:21:59;93399.06;;;8.91;83.55
55590;BME280;41452;42.780;23.116;2023-04-01T02:24:28;93397.59;;;8.79;83.93
55590;BME280;41452;42.780;23.116;2023-04-01T02:26:54;93388.91;;;8.73;83.57
55590;BME280;41452;42.780;23.116;2023-04-01T02:29:22;93370.81;;;8.71;83.68
55590;BME280;41452;42.780;23.116;2023-04-01T02:31:49;93401.38;;;8.88;84.33
55590;BME280;41452;42.780;23.116;2023-04-01T02:34:15;93399.00;;;8.86;83.30
55590;BME280;41452;42.780;23.116;2023-04-01T02:36:41;93383.66;;;8.73;82.16
55590;BME280;41452;42.780;23.116;2023-04-01T02:39:07;93401.00;;;8.79;81.61
55590;BME280;41452;42.780;23.116;2023-04-01T02:41:39;93345.19;;;8.51;80.33
55590;BME280;41452;42.780;23.116;2023-04-01T02:44:06;93405.84;;;8.87;77.49
55590;BME280;41452;42.780;23.116;2023-04-01T02:46:32;93405.16;;;8.97;76.42
55590;BME280;41452;42.780;23.116;2023-04-01T02:48:57;93378.13;;;8.91;73.89
55590;BME280;41452;42.780;23.116;2023-04-01T02:51:23;93419.88;;;9.20;73.44
55590;BME280;41452;42.780;23.116;2023-04-01T02:53:48;93434.44;;;9.33;74.08
55590;BME280;41452;42.780;23.116;2023-04-01T02:56:13;93426.34;;;9.35;74.06
55590;BME280;41452;42.780;23.116;2023-04-01T02:58:39;93442.97;;;9.45;73.65
55590;BME280;41452;42.780;23.116;2023-04-01T03:01:04;93439.81;;;9.43;75.35
55590;BME280;41452;42.780;23.116;2023-04-01T03:03:30;93441.38;;;9.44;78.82
55590;BME280;41452;42.780;23.116;2023-04-01T03:05:55;93450.59;;;9.47;80.81
55590;BME280;41452;42.780;23.116;2023-04-01T03:08:23;93448.50;;;9.49;83.97
55590;BME280;41452;42.780;23.116;2023-04-01T03:10:49;93446.06;;;9.42;83.83
55590;BME280;41452;42.780;23.116;2023-04-01T03:13:14;93451.31;;;9.42;86.33
55590;BME280;41452;42.780;23.116;2023-04-01T03:15:40;93454.41;;;9.39;91.30
55590;BME280;41452;42.780;23.116;2023-04-01T03:18:05;93448.06;;;9.35;91.48
55590;BME280;41452;42.780;23.116;2023-04-01T03:20:30;93409.34;;;9.15;90.27
55590;BME280;41452;42.780;23.116;2023-04-01T03:22:56;93363.81;;;8.77;90.44
55590;BME280;41452;42.780;23.116;2023-04-01T03:25:21;93409.81;;;9.12;91.22
55590;BME280;41452;42.780;23.116;2023-04-01T03:27:47;93400.97;;;9.18;90.71
55590;BME280;41452;42.780;23.116;2023-04-01T03:30:12;93382.88;;;9.17;90.83
55590;BME280;41452;42.780;23.116;2023-04-01T03:32:37;93373.56;;;9.26;90.05
55590;BME280;41452;42.780;23.116;2023-04-01T03:35:03;93345.97;;;9.18;90.51
55590;BME280;41452;42.780;23.116;2023-04-01T03:37:30;93363.22;;;9.41;92.11
55590;BME280;41452;42.780;23.116;2023-04-01T03:39:55;93365.19;;;9.29;96.25
55590;BME280;41452;42.780;23.116;2023-04-01T03:42:20;93294.59;;;8.90;96.91
55590;BME280;41452;42.780;23.116;2023-04-01T03:44:46;93347.31;;;9.21;100.00
55590;BME280;41452;42.780;23.116;2023-04-01T03:47:11;93337.63;;;9.21;100.00
55590;BME280;41452;42.780;23.116;2023-04-01T03:49:37;93332.72;;;9.03;100.00
55590;BME280;41452;42.780;23.116;2023-04-01T03:52:02;93309.22;;;8.86;100.00
55590;BME280;41452;42.780;23.116;2023-04-01T03:54:27;93314.09;;;8.99;100.00
55590;BME280;41452;42.780;23.116;2023-04-01T03:56:53;93319.88;;;9.01;100.00
55590;BME280;41452;42.780;23.116;2023-04-01T03:59:20;93315.28;;;8.91;100.00
55590;BME280;41452;42.780;23.116;2023-04-01T04:01:46;93307.66;;;8.90;100.00
55590;BME280;41452;42.780;23.116;2023-04-01T04:04:12;93299.50;;;8.86;100.00
55590;BME280;41452;42.780;23.116;2023-04-01T04:06:38;93306.41;;;8.92;100.00
55590;BME280;41452;42.780;23.116;2023-04-01T04:09:03;93311.22;;;8.79;100.00
55590;BME280;41452;42.780;23.116;2023-04-01T04:11:30;93314.69;;;8.62;100.00
55590;BME280;41452;42.780;23.116;2023-04-01T04:13:56;93313.22;;;8.71;100.00
55590;BME280;41452;42.780;23.116;2023-04-01T04:16:21;93314.63;;;8.79;100.00
55590;BME280;41452;42.780;23.116;2023-04-01T04:18:46;93310.38;;;8.73;100.00
55590;BME280;41452;42.780;23.116;2023-04-01T04:21:13;93257.97;;;8.46;100.00
55590;BME280;41452;42.780;23.116;2023-04-01T04:23:39;93301.91;;;8.88;100.00
55590;BME280;41452;42.780;23.116;2023-04-01T04:26:09;93288.88;;;8.93;100.00
55590;BME280;41452;42.780;23.116;2023-04-01T04:28:35;93284.56;;;8.82;100.00
55590;BME280;41452;42.780;23.116;2023-04-01T04:31:01;93197.59;;;8.30;100.00
55590;BME280;41452;42.780;23.116;2023-04-01T04:33:27;93225.59;;;8.52;100.00
55590;BME280;41452;42.780;23.116;2023-04-01T04:35:55;93271.72;;;8.80;100.00
55590;BME280;41452;42.780;23.116;2023-04-01T04:38:22;93273.50;;;8.74;100.00
55590;BME280;41452;42.780;23.116;2023-04-01T04:40:47;93270.06;;;8.74;100.00
55590;BME280;41452;42.780;23.116;2023-04-01T04:43:15;93263.75;;;8.70;100.00
55590;BME280;41452;42.780;23.116;2023-04-01T04:45:41;93263.19;;;8.68;100.00
55590;BME280;41452;42.780;23.116;2023-04-01T04:48:14;93264.50;;;8.65;100.00
55590;BME280;41452;42.780;23.116;2023-04-01T04:50:44;93242.81;;;8.48;100.00
55590;BME280;41452;42.780;23.116;2023-04-01T04:53:11;93260.97;;;8.54;100.00
55590;BME280;41452;42.780;23.116;2023-04-01T04:55:37;93251.44;;;8.48;100.00
55590;BME280;41452;42.780;23.116;2023-04-01T04:58:02;93241.22;;;8.47;100.00
55590;BME280;41452;42.780;23.116;2023-04-01T05:00:27;93204.94;;;8.33;100.00
55590;BME280;41452;42.780;23.116;2023-04-01T05:02:53;93188.94;;;8.30;100.00
55590;BME280;41452;42.780;23.116;2023-04-01T05:05:18;93157.06;;;8.11;100.00
55590;BME280;41452;42.780;23.116;2023-04-01T05:07:44;93215.38;;;8.50;100.00
55590;BME280;41452;42.780;23.116;2023-04-01T05:10:09;93219.75;;;8.45;100.00
55590;BME280;41452;42.780;23.116;2023-04-01T05:12:35;93209.69;;;8.36;100.00
55590;BME280;41452;42.780;23.116;2023-04-01T05:15:07;93208.03;;;8.30;100.00
55590;BME280;41452;42.780;23.116;2023-04-01T05:17:33;93198.06;;;8.27;100.00
55590;BME280;41452;42.780;23.116;2023-04-01T05:19:59;93174.91;;;8.14;100.00
55590;BME280;41452;42.780;23.116;2023-04-01T05:22:24;93164.94;;;8.11;100.00
55590;BME280;41452;42.780;23.116;2023-04-01T05:24:50;93208.34;;;8.34;100.00
55590;BME280;41452;42.780;23.116;2023-04-01T05:27:16;93196.28;;;8.50;100.00
55590;BME280;41452;42.780;23.116;2023-04-01T05:29:41;93213.66;;;8.61;100.00
55590;BME280;41452;42.780;23.116;2023-04-01T05:32:07;93213.28;;;8.74;100.00
55590;BME280;41452;42.780;23.116;2023-04-01T05:34:32;93206.56;;;8.84;100.00
55590;BME280;41452;42.780;23.116;2023-04-01T05:36:57;93201.38;;;8.89;100.00
55590;BME280;41452;42.780;23.116;2023-04-01T05:39:23;93200.91;;;8.97;100.00
55590;BME280;41452;42.780;23.116;2023-04-01T05:41:49;93173.81;;;9.08;100.00
55590;BME280;41452;42.780;23.116;2023-04-01T05:44:14;93170.63;;;9.06;100.00
55590;BME280;41452;42.780;23.116;2023-04-01T05:46:40;93189.94;;;9.32;100.00
55590;BME280;41452;42.780;23.116;2023-04-01T05:49:05;93183.47;;;9.40;100.00
55590;BME280;41452;42.780;23.116;2023-04-01T05:51:30;93174.53;;;9.36;99.44
55590;BME280;41452;42.780;23.116;2023-04-01T05:53:56;93184.63;;;9.55;100.00
55590;BME280;41452;42.780;23.116;2023-04-01T05:56:21;93186.56;;;9.69;100.00
55590;BME280;41452;42.780;23.116;2023-04-01T05:58:50;93180.53;;;9.69;95.35
55590;BME280;41452;42.780;23.116;2023-04-01T06:01:16;93190.56;;;9.82;96.12
55590;BME280;41452;42.780;23.116;2023-04-01T06:03:41;93170.19;;;9.89;96.75
55590;BME280;41452;42.780;23.116;2023-04-01T06:06:15;93170.38;;;9.83;93.67
55590;BME280;41452;42.780;23.116;2023-04-01T06:08:41;93184.91;;;10.01;89.36
55590;BME280;41452;42.780;23.116;2023-04-01T06:16:10;93183.44;;;10.25;93.36
55590;BME280;41452;42.780;23.116;2023-04-01T06:27:14;93185.28;;;9.72;91.64
55590;BME280;41452;42.780;23.116;2023-04-01T06:30:22;93196.22;;;9.64;93.34
55590;BME280;41452;42.780;23.116;2023-04-01T06:36:00;93177.78;;;9.54;90.03
55590;BME280;41452;42.780;23.116;2023-04-01T06:44:23;93176.53;;;9.56;89.43
55590;BME280;41452;42.780;23.116;2023-04-01T06:47:17;93127.06;;;9.32;90.11
55590;BME280;41452;42.780;23.116;2023-04-01T06:50:21;93186.41;;;9.86;89.95
55590;BME280;41452;42.780;23.116;2023-04-01T06:53:04;93170.19;;;9.95;87.23
55590;BME280;41452;42.780;23.116;2023-04-01T06:55:53;93182.06;;;10.07;88.69
55590;BME280;41452;42.780;23.116;2023-04-01T06:58:25;93168.16;;;10.12;88.08
55590;BME280;41452;42.780;23.116;2023-04-01T07:00:54;93176.09;;;10.22;89.77
55590;BME280;41452;42.780;23.116;2023-04-01T07:05:57;93166.69;;;10.32;92.26
55590;BME280;41452;42.780;23.116;2023-04-01T07:08:25;93160.13;;;10.29;90.28
55590;BME280;41452;42.780;23.116;2023-04-01T07:11:03;93181.34;;;10.27;89.18
55590;BME280;41452;42.780;23.116;2023-04-01T07:13:48;93173.63;;;10.00;90.08
55590;BME280;41452;42.780;23.116;2023-04-01T07:21:38;93173.72;;;10.21;90.83
55590;BME280;41452;42.780;23.116;2023-04-01T07:24:17;93163.00;;;10.27;93.05
55590;BME280;41452;42.780;23.116;2023-04-01T07:26:47;93160.56;;;10.16;92.69
55590;BME280;41452;42.780;23.116;2023-04-01T07:29:14;93119.75;;;9.82;90.16
55590;BME280;41452;42.780;23.116;2023-04-01T07:32:29;93165.56;;;10.17;90.40
55590;BME280;41452;42.780;23.116;2023-04-01T07:48:29;93176.50;;;10.57;86.84
55590;BME280;41452;42.780;23.116;2023-04-01T07:53:40;93160.53;;;10.74;85.66
55590;BME280;41452;42.780;23.116;2023-04-01T07:56:22;93100.38;;;10.46;87.31
55590;BME280;41452;42.780;23.116;2023-04-01T07:59:07;93151.88;;;10.89;86.92
55590;BME280;41452;42.780;23.116;2023-04-01T08:06:47;93122.72;;;10.75;88.73
55590;BME280;41452;42.780;23.116;2023-04-01T08:17:21;93108.81;;;10.79;90.94
55590;BME280;41452;42.780;23.116;2023-04-01T08:22:30;93093.31;;;11.03;89.23
55590;BME280;41452;42.780;23.116;2023-04-01T08:25:01;93092.25;;;11.10;89.67
55590;BME280;41452;42.780;23.116;2023-04-01T08:29:59;93078.59;;;11.02;86.00
55590;BME280;41452;42.780;23.116;2023-04-01T08:32:41;93080.16;;;11.19;84.39
55590;BME280;41452;42.780;23.116;2023-04-01T08:35:25;93086.22;;;11.19;80.69
55590;BME280;41452;42.780;23.116;2023-04-01T08:37:54;93057.06;;;11.06;82.64
55590;BME280;41452;42.780;23.116;2023-04-01T08:43:06;93067.78;;;11.45;83.28
55590;BME280;41452;42.780;23.116;2023-04-01T08:48:31;93040.63;;;11.65;80.39
55590;BME280;41452;42.780;23.116;2023-04-01T08:54:03;93061.13;;;11.78;80.51
55590;BME280;41452;42.780;23.116;2023-04-01T08:57:01;93044.25;;;11.85;82.89
55590;BME280;41452;42.780;23.116;2023-04-01T09:16:04;93031.31;;;11.98;77.18
55590;BME280;41452;42.780;23.116;2023-04-01T09:35:39;92985.00;;;12.47;74.65
55590;BME280;41452;42.780;23.116;2023-04-01T09:38:20;92977.09;;;12.47;74.36
55590;BME280;41452;42.780;23.116;2023-04-01T09:40:56;92984.31;;;12.66;71.11
55590;BME280;41452;42.780;23.116;2023-04-01T09:43:26;92977.38;;;12.75;69.66
55590;BME280;41452;42.780;23.116;2023-04-01T10:03:39;92945.28;;;13.26;66.69
55590;BME280;41452;42.780;23.116;2023-04-01T10:11:12;92926.13;;;13.45;66.91
55590;BME280;41452;42.780;23.116;2023-04-01T10:27:34;92896.13;;;14.17;56.85
55590;BME280;41452;42.780;23.116;2023-04-01T10:33:22;92886.63;;;14.49;56.76
55590;BME280;41452;42.780;23.116;2023-04-01T11:09:48;92866.59;;;14.15;66.90
55590;BME280;41452;42.780;23.116;2023-04-01T11:18:02;92922.38;;;14.08;65.46
55590;BME280;41452;42.780;23.116;2023-04-01T11:20:42;92948.06;;;14.02;66.19
55590;BME280;41452;42.780;23.116;2023-04-01T11:26:11;93001.75;;;12.91;80.78
55590;BME280;41452;42.780;23.116;2023-04-01T11:45:37;93086.50;;;10.82;98.34
55590;BME280;41452;42.780;23.116;2023-04-01T11:48:19;93089.88;;;10.62;100.00
55590;BME280;41452;42.780;23.116;2023-04-01T11:58:58;93083.06;;;9.87;100.00
55590;BME280;41452;42.780;23.116;2023-04-01T12:02:01;93074.66;;;9.80;100.00
55590;BME280;41452;42.780;23.116;2023-04-01T12:12:59;93095.09;;;9.78;100.00
55590;BME280;41452;42.780;23.116;2023-04-01T12:18:24;93108.75;;;9.80;100.00
55590;BME280;41452;42.780;23.116;2023-04-01T12:20:57;93106.16;;;9.85;100.00
55590;BME280;41452;42.780;23.116;2023-04-01T12:32:38;93095.97;;;9.94;100.00
55590;BME280;41452;42.780;23.116;2023-04-01T12:35:25;93096.50;;;10.01;100.00
55590;BME280;41452;42.780;23.116;2023-04-01T12:41:21;93035.88;;;9.87;100.00
55590;BME280;41452;42.780;23.116;2023-04-01T12:47:08;93054.09;;;10.30;100.00
55590;BME280;41452;42.780;23.116;2023-04-01T12:49:44;93044.44;;;10.46;100.00
55590;BME280;41452;42.780;23.116;2023-04-01T12:52:51;93051.31;;;10.62;100.00
55590;BME280;41452;42.780;23.116;2023-04-01T12:55:41;93051.28;;;10.68;100.00
55590;BME280;41452;42.780;23.116;2023-04-01T13:01:28;93047.63;;;10.84;100.00
55590;BME280;41452;42.780;23.116;2023-04-01T13:09:45;93037.38;;;10.98;100.00
55590;BME280;41452;42.780;23.116;2023-04-01T13:28:18;92989.78;;;11.25;100.00
55590;BME280;41452;42.780;23.116;2023-04-01T13:46:38;92947.59;;;12.45;95.89
55590;BME280;41452;42.780;23.116;2023-04-01T13:52:16;92953.69;;;12.75;96.92
55590;BME280;41452;42.780;23.116;2023-04-01T14:27:46;92857.63;;;12.91;90.30
55590;BME280;41452;42.780;23.116;2023-04-01T14:30:42;92876.56;;;13.18;87.14
55590;BME280;41452;42.780;23.116;2023-04-01T14:33:37;92871.94;;;13.28;89.43
55590;BME280;41452;42.780;23.116;2023-04-01T14:41:47;92864.59;;;13.49;84.55
55590;BME280;41452;42.780;23.116;2023-04-01T14:44:18;92871.53;;;13.64;85.62
55590;BME280;41452;42.780;23.116;2023-04-01T14:49:44;92886.78;;;13.67;78.61
55590;BME280;41452;42.780;23.116;2023-04-01T14:52:35;92896.63;;;13.62;75.41
55590;BME280;41452;42.780;23.116;2023-04-01T14:55:18;92876.56;;;13.42;73.37
55590;BME280;41452;42.780;23.116;2023-04-01T14:58:18;92889.97;;;13.45;73.93
55590;BME280;41452;42.780;23.116;2023-04-01T15:03:22;92909.22;;;13.46;73.96
55590;BME280;41452;42.780;23.116;2023-04-01T15:05:54;92895.59;;;13.39;74.00
55590;BME280;41452;42.780;23.116;2023-04-01T15:08:32;92912.41;;;13.43;69.77
55590;BME280;41452;42.780;23.116;2023-04-01T15:11:24;92911.97;;;13.36;75.12
55590;BME280;41452;42.780;23.116;2023-04-01T15:14:18;92902.09;;;13.22;75.00
55590;BME280;41452;42.780;23.116;2023-04-01T15:16:58;92882.06;;;13.21;72.61
55590;BME280;41452;42.780;23.116;2023-04-01T15:22:08;92901.69;;;13.10;75.57
55590;BME280;41452;42.780;23.116;2023-04-01T15:24:56;92916.38;;;13.16;85.89
55590;BME280;41452;42.780;23.116;2023-04-01T15:28:01;93046.81;;;12.89;84.43
55590;BME280;41452;42.780;23.116;2023-04-01T15:30:34;93050.06;;;11.82;83.92
55590;BME280;41452;42.780;23.116;2023-04-01T15:33:27;93086.50;;;10.77;85.77
55590;BME280;41452;42.780;23.116;2023-04-01T16:11:37;93182.47;;;7.93;100.00
55590;BME280;41452;42.780;23.116;2023-04-01T16:13:54;93185.19;;;7.81;100.00
55590;BME280;41452;42.780;23.116;2023-04-01T16:16:35;93173.44;;;7.62;100.00
55590;BME280;41452;42.780;23.116;2023-04-01T16:21:50;93194.09;;;7.64;100.00
55590;BME280;41452;42.780;23.116;2023-04-01T16:26:56;93185.75;;;7.28;100.00
55590;BME280;41452;42.780;23.116;2023-04-01T16:29:45;93193.19;;;7.36;100.00
55590;BME280;41452;42.780;23.116;2023-04-01T16:32:36;93202.91;;;7.23;100.00
55590;BME280;41452;42.780;23.116;2023-04-01T16:38:12;93202.28;;;7.16;100.00
55590;BME280;41452;42.780;23.116;2023-04-01T16:49:01;93218.31;;;7.08;100.00
55590;BME280;41452;42.780;23.116;2023-04-01T16:51:37;93236.06;;;7.06;100.00
55590;BME280;41452;42.780;23.116;2023-04-01T16:54:05;93245.94;;;7.04;100.00
55590;BME280;41452;42.780;23.116;2023-04-01T16:56:42;93249.97;;;6.95;100.00
55590;BME280;41452;42.780;23.116;2023-04-01T16:59:21;93258.94;;;6.87;100.00
55590;BME280;41452;42.780;23.116;2023-04-01T17:01:53;93270.09;;;6.82;100.00
55590;BME280;41452;42.780;23.116;2023-04-01T17:12:40;93313.22;;;6.73;100.00
55590;BME280;41452;42.780;23.116;2023-04-01T17:23:15;93307.66;;;6.70;100.00
55590;BME280;41452;42.780;23.116;2023-04-01T17:25:59;93291.00;;;6.71;100.00
55590;BME280;41452;42.780;23.116;2023-04-01T17:31:42;93299.25;;;6.79;100.00
55590;BME280;41452;42.780;23.116;2023-04-01T17:44:59;93333.75;;;6.81;100.00
55590;BME280;41452;42.780;23.116;2023-04-01T17:58:39;93370.63;;;7.14;100.00
55590;BME280;41452;42.780;23.116;2023-04-01T18:07:25;93364.44;;;7.32;100.00
55590;BME280;41452;42.780;23.116;2023-04-01T18:16:29;93380.53;;;7.40;100.00
55590;BME280;41452;42.780;23.116;2023-04-01T18:18:48;93377.00;;;7.47;100.00
55590;BME280;41452;42.780;23.116;2023-04-01T18:26:39;93364.53;;;7.37;100.00
55590;BME280;41452;42.780;23.116;2023-04-01T18:31:55;93367.03;;;7.32;100.00
55590;BME280;41452;42.780;23.116;2023-04-01T18:34:49;93401.06;;;7.49;100.00
55590;BME280;41452;42.780;23.116;2023-04-01T18:37:25;93379.41;;;7.36;100.00
55590;BME280;41452;42.780;23.116;2023-04-01T18:39:57;93367.47;;;7.40;100.00
55590;BME280;41452;42.780;23.116;2023-04-01T18:48:15;93415.22;;;7.53;100.00
55590;BME280;41452;42.780;23.116;2023-04-01T18:50:55;93391.59;;;7.31;100.00
55590;BME280;41452;42.780;23.116;2023-04-01T18:53:30;93389.44;;;7.28;100.00
55590;BME280;41452;42.780;23.116;2023-04-01T18:56:05;93418.69;;;7.41;100.00
55590;BME280;41452;42.780;23.116;2023-04-01T18:59:05;93417.75;;;7.48;100.00
55590;BME280;41452;42.780;23.116;2023-04-01T19:01:39;93423.13;;;7.41;100.00
55590;BME280;41452;42.780;23.116;2023-04-01T19:06:58;93417.63;;;7.14;100.00
55590;BME280;41452;42.780;23.116;2023-04-01T19:09:27;93424.91;;;7.12;100.00
55590;BME280;41452;42.780;23.116;2023-04-01T19:12:05;93420.06;;;7.03;100.00
55590;BME280;41452;42.780;23.116;2023-04-01T19:25:42;93418.59;;;6.96;100.00
55590;BME280;41452;42.780;23.116;2023-04-01T19:34:19;93424.06;;;6.82;100.00
55590;BME280;41452;42.780;23.116;2023-04-01T19:45:34;93401.75;;;6.63;100.00
55590;BME280;41452;42.780;23.116;2023-04-01T19:53:46;93400.81;;;6.69;100.00
55590;BME280;41452;42.780;23.116;2023-04-01T19:56:18;93404.91;;;6.65;100.00
55590;BME280;41452;42.780;23.116;2023-04-01T19:58:54;93421.34;;;6.54;100.00
55590;BME280;41452;42.780;23.116;2023-04-01T20:01:48;93430.75;;;6.43;100.00
55590;BME280;41452;42.780;23.116;2023-04-01T20:04:19;93440.53;;;6.47;100.00
55590;BME280;41452;42.780;23.116;2023-04-01T20:07:00;93409.66;;;6.21;100.00
55590;BME280;41452;42.780;23.116;2023-04-01T20:12:32;93450.50;;;6.51;100.00
55590;BME280;41452;42.780;23.116;2023-04-01T20:15:03;93445.41;;;6.56;100.00
55590;BME280;41452;42.780;23.116;2023-04-01T20:17:43;93446.66;;;6.65;100.00
55590;BME280;41452;42.780;23.116;2023-04-01T20:28:05;93446.28;;;6.85;100.00
55590;BME280;41452;42.780;23.116;2023-04-01T20:34:10;93396.06;;;6.54;100.00
55590;BME280;41452;42.780;23.116;2023-04-01T20:37:00;93459.69;;;6.89;100.00
55590;BME280;41452;42.780;23.116;2023-04-01T20:47:52;93473.88;;;6.69;100.00
55590;BME280;41452;42.780;23.116;2023-04-01T20:53:48;93478.06;;;6.58;100.00
55590;BME280;41452;42.780;23.116;2023-04-01T21:01:47;93483.25;;;6.46;100.00
55590;BME280;41452;42.780;23.116;2023-04-01T21:17:42;93509.16;;;6.60;100.00
55590;BME280;41452;42.780;23.116;2023-04-01T21:26:26;93506.16;;;6.44;100.00
55590;BME280;41452;42.780;23.116;2023-04-01T21:42:49;93495.88;;;6.07;100.00
55590;BME280;41452;42.780;23.116;2023-04-01T21:51:19;93491.16;;;6.04;100.00
55590;BME280;41452;42.780;23.116;2023-04-01T22:12:47;93486.97;;;5.85;100.00
55590;BME280;41452;42.780;23.116;2023-04-01T22:23:59;93498.25;;;5.79;100.00
55590;BME280;41452;42.780;23.116;2023-04-01T22:34:56;93502.03;;;5.52;100.00
55590;BME280;41452;42.780;23.116;2023-04-01T22:37:40;93494.28;;;5.46;100.00
55590;BME280;41452;42.780;23.116;2023-04-01T22:43:04;93488.38;;;5.39;100.00
55590;BME280;41452;42.780;23.116;2023-04-01T22:45:57;93500.53;;;5.26;100.00
55590;BME280;41452;42.780;23.116;2023-04-01T22:48:35;93502.63;;;5.18;99.96
55590;BME280;41452;42.780;23.116;2023-04-01T22:54:07;93445.88;;;4.71;99.90
55590;BME280;41452;42.780;23.116;2023-04-01T22:56:40;93491.41;;;4.80;99.96
55590;BME280;41452;42.780;23.116;2023-04-01T23:01:43;93510.75;;;4.84;100.00
55590;BME280;41452;42.780;23.116;2023-04-01T23:04:14;93487.66;;;4.51;100.00
55590;BME280;41452;42.780;23.116;2023-04-01T23:06:46;93495.41;;;4.57;100.00
55590;BME280;41452;42.780;23.116;2023-04-01T23:09:17;93522.34;;;4.63;100.00
55590;BME280;41452;42.780;23.116;2023-04-01T23:11:52;93525.97;;;4.62;100.00
55590;BME280;41452;42.780;23.116;2023-04-01T23:17:13;93523.25;;;4.50;100.00
55590;BME280;41452;42.780;23.116;2023-04-01T23:19:52;93519.34;;;4.41;100.00
55590;BME280;41452;42.780;23.116;2023-04-01T23:22:29;93522.94;;;4.40;100.00
55590;BME280;41452;42.780;23.116;2023-04-01T23:28:44;93516.19;;;4.32;100.00
55590;BME280;41452;42.780;23.116;2023-04-01T23:31:47;93517.41;;;4.30;100.00
55590;BME280;41452;42.780;23.116;2023-04-01T23:39:40;93517.56;;;4.35;100.00
55590;BME280;41452;42.780;23.116;2023-04-01T23:42:21;93514.66;;;4.25;100.00
55590;BME280;41452;42.780;23.116;2023-04-01T23:44:50;93499.75;;;4.13;100.00
55590;BME280;41452;42.780;23.116;2023-04-01T23:47:24;93474.06;;;3.98;100.00
55590;BME280;41452;42.780;23.116;2023-04-01T23:50:11;93512.47;;;4.22;100.00
55590;BME280;41452;42.780;23.116;2023-04-01T23:52:41;93504.69;;;4.22;100.00
55590;BME280;41452;42.780;23.116;2023-04-01T23:57:36;93499.06;;;4.25;100.00
